createdAt,value
2018-06-22T00:01:39.580Z,15.77
2018-06-22T00:04:08.429Z,12.93
2018-06-22T00:06:37.258Z,9.50
2018-06-22T00:09:09.657Z,17.50
2018-06-22T00:11:38.226Z,12.40
2018-06-22T00:14:07.253Z,17.20
2018-06-22T00:16:35.745Z,11.60
2018-06-22T00:19:04.220Z,12.43
2018-06-22T00:21:32.685Z,8.33
2018-06-22T00:24:01.162Z,9.60
2018-06-22T00:26:29.592Z,18.03
2018-06-22T00:28:58.069Z,11.40
2018-06-22T00:31:26.784Z,10.47
2018-06-22T00:33:55.241Z,7.00
2018-06-22T00:36:23.697Z,13.60
2018-06-22T00:38:52.174Z,9.90
2018-06-22T00:41:20.629Z,8.10
2018-06-22T00:43:49.189Z,9.53
2018-06-22T00:46:17.316Z,5.97
2018-06-22T00:48:46.237Z,10.83
2018-06-22T00:51:14.689Z,10.03
2018-06-22T00:53:54.460Z,12.17
2018-06-22T00:56:23.118Z,15.90
2018-06-22T00:58:51.610Z,14.07
2018-06-22T01:01:20.508Z,17.20
2018-06-22T01:03:48.994Z,10.27
2018-06-22T01:06:17.438Z,8.70
2018-06-22T01:08:45.975Z,6.07
2018-06-22T01:11:14.412Z,11.90
2018-06-22T01:13:42.898Z,13.17
2018-06-22T01:16:11.317Z,11.83
2018-06-22T01:18:39.957Z,10.20
2018-06-22T01:21:08.417Z,12.40
2018-06-22T01:23:36.930Z,11.37
2018-06-22T01:26:05.805Z,18.33
2018-06-22T01:28:34.236Z,12.43
2018-06-22T01:31:02.757Z,16.17
2018-06-22T01:33:31.222Z,9.73
2018-06-22T01:35:59.772Z,12.30
2018-06-22T01:38:28.236Z,5.33
2018-06-22T01:40:56.748Z,12.53
2018-06-22T01:43:25.410Z,9.63
2018-06-22T01:45:53.969Z,11.20
2018-06-22T01:48:22.476Z,9.90
2018-06-22T01:50:51.017Z,6.03
2018-06-22T01:53:19.481Z,8.37
2018-06-22T01:55:48.041Z,7.37
2018-06-22T01:58:16.534Z,10.03
2018-06-22T02:00:45.097Z,16.80
2018-06-22T02:03:13.596Z,10.00
2018-06-22T02:05:42.199Z,23.67
2018-06-22T02:08:10.649Z,12.97
2018-06-22T02:10:39.176Z,14.20
2018-06-22T02:13:07.657Z,7.80
2018-06-22T02:15:36.183Z,3.80
2018-06-22T02:18:04.677Z,11.20
2018-06-22T02:20:33.205Z,15.17
2018-06-22T02:23:01.665Z,7.20
2018-06-22T02:25:30.214Z,6.73
2018-06-22T02:27:58.681Z,10.17
2018-06-22T02:30:27.207Z,6.80
2018-06-22T02:32:55.765Z,13.80
2018-06-22T02:35:24.233Z,10.07
2018-06-22T02:37:52.779Z,8.90
2018-06-22T02:40:21.293Z,10.03
2018-06-22T02:42:49.803Z,6.33
2018-06-22T02:45:18.333Z,11.30
2018-06-22T02:47:46.829Z,9.47
2018-06-22T02:50:15.348Z,17.07
2018-06-22T02:52:43.851Z,9.80
2018-06-22T02:55:12.329Z,7.13
2018-06-22T02:57:40.851Z,5.90
2018-06-22T03:00:09.379Z,13.23
2018-06-22T03:02:37.889Z,10.17
2018-06-22T03:05:06.361Z,8.73
2018-06-22T03:07:34.850Z,14.70
2018-06-22T03:10:04.057Z,8.33
2018-06-22T03:12:32.763Z,13.03
2018-06-22T03:15:01.294Z,11.40
2018-06-22T03:17:29.873Z,9.83
2018-06-22T03:19:58.335Z,9.07
2018-06-22T03:22:26.904Z,10.03
2018-06-22T03:24:55.640Z,20.17
2018-06-22T03:27:24.186Z,11.63
2018-06-22T03:29:52.675Z,13.63
2018-06-22T03:32:21.301Z,8.73
2018-06-22T03:34:49.840Z,18.13
2018-06-22T03:37:17.982Z,9.87
2018-06-22T03:39:47.861Z,10.43
2018-06-22T03:42:16.349Z,10.70
2018-06-22T03:44:44.892Z,6.17
2018-06-22T03:47:13.381Z,6.00
2018-06-22T03:49:41.888Z,12.30
2018-06-22T03:52:10.413Z,9.50
2018-06-22T03:54:38.931Z,9.60
2018-06-22T03:57:07.471Z,6.23
2018-06-22T03:59:35.953Z,15.00
2018-06-22T04:02:04.412Z,9.13
2018-06-22T04:04:32.951Z,3.47
2018-06-22T04:07:01.477Z,9.27
2018-06-22T04:09:30.044Z,18.07
2018-06-22T04:11:58.613Z,10.00
2018-06-22T04:14:27.237Z,6.07
2018-06-22T04:16:55.752Z,9.20
2018-06-22T04:19:24.208Z,5.13
2018-06-22T04:21:52.729Z,4.27
2018-06-22T04:24:21.232Z,9.33
2018-06-22T04:26:49.749Z,16.00
2018-06-22T04:29:19.480Z,14.33
2018-06-22T04:31:49.474Z,10.37
2018-06-22T04:34:18.013Z,12.87
2018-06-22T04:36:46.534Z,16.47
2018-06-22T04:39:15.027Z,10.37
2018-06-22T04:41:43.541Z,6.43
2018-06-22T04:44:12.070Z,11.37
2018-06-22T04:46:40.613Z,7.97
2018-06-22T04:49:09.085Z,11.33
2018-06-22T04:51:37.589Z,11.10
2018-06-22T04:54:06.081Z,12.60
2018-06-22T04:56:34.245Z,8.97
2018-06-22T04:59:02.773Z,17.20
2018-06-22T05:01:31.337Z,12.07
2018-06-22T05:03:59.813Z,16.73
2018-06-22T05:06:28.433Z,15.43
2018-06-22T05:08:56.893Z,14.47
2018-06-22T05:11:25.565Z,6.40
2018-06-22T05:13:54.070Z,17.07
2018-06-22T05:16:22.661Z,10.13
2018-06-22T05:18:51.177Z,10.00
2018-06-22T05:21:19.666Z,5.57
2018-06-22T05:23:48.186Z,12.87
2018-06-22T05:26:16.709Z,9.60
2018-06-22T05:28:45.233Z,4.93
2018-06-22T05:31:13.749Z,7.83
2018-06-22T05:33:42.263Z,7.57
2018-06-22T05:36:10.745Z,4.63
2018-06-22T05:38:39.246Z,8.10
2018-06-22T05:41:07.729Z,5.70
2018-06-22T05:43:36.285Z,6.57
2018-06-22T05:46:04.998Z,2.60
2018-06-22T05:48:33.561Z,7.37
2018-06-22T05:51:02.199Z,4.60
2018-06-22T05:53:30.725Z,13.83
2018-06-22T05:55:59.239Z,11.40
2018-06-22T05:58:27.738Z,4.53
2018-06-22T06:00:56.218Z,8.90
2018-06-22T06:03:24.723Z,6.53
2018-06-22T06:05:53.261Z,7.63
2018-06-22T06:08:21.808Z,13.73
2018-06-22T06:10:50.267Z,4.87
2018-06-22T06:13:18.729Z,9.40
2018-06-22T06:15:47.268Z,7.27
2018-06-22T06:18:15.729Z,9.97
2018-06-22T06:20:44.325Z,11.53
2018-06-22T06:23:12.889Z,8.67
2018-06-22T06:25:41.430Z,4.40
2018-06-22T06:28:09.937Z,11.90
2018-06-22T06:30:38.571Z,5.73
2018-06-22T06:33:07.068Z,5.63
2018-06-22T06:35:35.685Z,6.73
2018-06-22T06:38:04.237Z,6.67
2018-06-22T06:40:32.765Z,11.07
2018-06-22T06:43:01.266Z,4.60
2018-06-22T06:45:29.906Z,10.10
2018-06-22T06:47:58.376Z,9.73
2018-06-22T06:50:26.871Z,8.53
2018-06-22T06:52:55.377Z,21.73
2018-06-22T06:55:23.938Z,14.60
2018-06-22T06:57:52.084Z,14.40
2018-06-22T07:00:21.222Z,10.50
2018-06-22T07:02:49.854Z,11.80
2018-06-22T07:05:18.393Z,10.20
2018-06-22T07:10:41.186Z,15.63
2018-06-22T07:13:09.732Z,9.33
2018-06-22T07:15:40.112Z,12.10
2018-06-22T07:18:09.609Z,13.17
2018-06-22T07:20:38.442Z,9.20
2018-06-22T07:23:07.504Z,9.10
2018-06-22T07:25:35.992Z,6.70
2018-06-22T07:28:04.654Z,10.83
2018-06-22T07:30:33.139Z,26.20
2018-06-22T07:33:01.640Z,13.50
2018-06-22T07:35:30.117Z,7.37
2018-06-22T07:37:58.692Z,6.83
2018-06-22T07:40:27.193Z,13.80
2018-06-22T07:42:55.707Z,12.00
2018-06-22T07:45:24.253Z,6.57
2018-06-22T07:47:52.805Z,19.53
2018-06-22T07:50:21.378Z,5.50
2018-06-22T07:52:49.889Z,10.77
2018-06-22T07:55:18.433Z,11.60
2018-06-22T07:57:46.997Z,9.10
2018-06-22T08:00:15.485Z,14.00
2018-06-22T08:02:44.027Z,13.57
2018-06-22T08:05:12.501Z,15.27
2018-06-22T08:07:41.104Z,15.63
2018-06-22T08:10:09.578Z,9.63
2018-06-22T08:12:38.098Z,11.63
2018-06-22T08:15:06.605Z,11.77
2018-06-22T08:17:35.147Z,15.73
2018-06-22T08:20:03.749Z,12.50
2018-06-22T08:22:32.325Z,13.23
2018-06-22T08:25:00.986Z,10.97
2018-06-22T08:27:29.487Z,13.90
2018-06-22T08:29:58.002Z,7.47
2018-06-22T08:32:26.542Z,17.57
2018-06-22T08:34:55.220Z,9.60
2018-06-22T08:37:23.749Z,8.50
2018-06-22T08:39:52.309Z,13.40
2018-06-22T08:42:20.782Z,16.20
2018-06-22T08:44:49.337Z,6.33
2018-06-22T08:47:17.976Z,12.03
2018-06-22T08:49:46.493Z,8.03
2018-06-22T08:52:15.153Z,20.10
2018-06-22T08:54:43.663Z,12.50
2018-06-22T08:57:12.277Z,13.00
2018-06-22T08:59:40.814Z,6.57
2018-06-22T09:02:09.753Z,16.77
2018-06-22T09:04:38.333Z,8.10
2018-06-22T09:07:06.894Z,9.13
2018-06-22T09:09:35.427Z,12.70
2018-06-22T09:12:04.461Z,13.10
2018-06-22T09:14:33.027Z,14.43
2018-06-22T09:17:01.533Z,15.50
2018-06-22T09:19:30.074Z,8.40
2018-06-22T09:21:58.557Z,9.17
2018-06-22T09:24:27.078Z,9.00
2018-06-22T09:26:55.561Z,11.37
2018-06-22T09:29:24.123Z,9.57
2018-06-22T09:31:52.627Z,17.53
2018-06-22T09:34:21.137Z,11.47
2018-06-22T09:36:49.681Z,11.97
2018-06-22T09:39:18.186Z,19.90
2018-06-22T09:41:46.690Z,9.93
2018-06-22T09:44:46.297Z,10.70
2018-06-22T09:47:14.772Z,15.13
2018-06-22T09:49:43.305Z,18.10
2018-06-22T09:52:11.835Z,17.30
2018-06-22T09:54:40.410Z,12.40
2018-06-22T09:57:08.926Z,16.90
2018-06-22T09:59:37.472Z,15.63
2018-06-22T10:02:06.072Z,13.23
2018-06-22T10:04:34.559Z,24.20
2018-06-22T10:07:03.115Z,13.03
2018-06-22T10:09:31.602Z,22.23
2018-06-22T10:12:00.110Z,23.17
2018-06-22T10:14:28.589Z,17.73
2018-06-22T10:16:57.138Z,24.03
2018-06-22T10:19:25.640Z,13.97
2018-06-22T10:21:54.168Z,13.30
2018-06-22T10:24:22.645Z,16.90
2018-06-22T10:26:51.219Z,22.53
2018-06-22T10:29:19.715Z,29.20
2018-06-22T10:31:48.247Z,22.83
2018-06-22T10:34:16.708Z,15.67
2018-06-22T10:36:45.206Z,21.17
2018-06-22T10:39:13.997Z,19.67
2018-06-22T10:41:42.672Z,17.53
2018-06-22T10:44:11.479Z,26.50
2018-06-22T10:46:40.642Z,13.33
2018-06-22T10:49:09.231Z,25.37
2018-06-22T10:51:37.809Z,24.70
2018-06-22T10:54:06.429Z,14.53
2018-06-22T10:56:35.008Z,18.73
2018-06-22T10:59:03.641Z,22.03
2018-06-22T11:01:32.557Z,21.93
2018-06-22T11:04:01.137Z,13.80
2018-06-22T11:06:29.630Z,20.70
2018-06-22T11:08:58.198Z,15.53
2018-06-22T11:11:26.687Z,14.63
2018-06-22T11:13:55.335Z,15.30
2018-06-22T11:16:23.861Z,15.20
2018-06-22T11:18:52.380Z,12.33
2018-06-22T11:21:20.974Z,12.93
2018-06-22T11:23:49.433Z,15.67
2018-06-22T11:26:17.973Z,13.33
2018-06-22T11:28:46.518Z,13.93
2018-06-22T11:31:15.090Z,9.37
2018-06-22T11:33:43.715Z,13.10
2018-06-22T11:36:12.163Z,10.90
2018-06-22T11:38:40.653Z,4.93
2018-06-22T11:41:09.185Z,16.23
2018-06-22T11:43:37.733Z,13.93
2018-06-22T11:46:06.338Z,12.60
2018-06-22T11:48:34.895Z,15.63
2018-06-22T11:51:03.506Z,13.07
2018-06-22T11:53:32.057Z,12.10
2018-06-22T11:56:00.675Z,8.67
2018-06-22T11:58:29.221Z,20.73
2018-06-22T12:00:57.815Z,11.13
2018-06-22T12:03:26.567Z,9.87
2018-06-22T12:05:55.136Z,13.70
2018-06-22T12:08:23.647Z,12.43
2018-06-22T12:10:52.218Z,5.80
2018-06-22T12:13:20.734Z,13.40
2018-06-22T12:15:49.274Z,16.77
2018-06-22T12:18:17.802Z,13.03
2018-06-22T12:20:46.350Z,11.87
2018-06-22T12:23:14.890Z,11.00
2018-06-22T12:25:43.434Z,15.77
2018-06-22T12:28:12.030Z,16.53
2018-06-22T12:30:42.266Z,13.33
2018-06-22T12:33:10.818Z,12.77
2018-06-22T12:35:39.325Z,13.77
2018-06-22T12:38:07.857Z,14.80
2018-06-22T12:40:36.444Z,15.03
2018-06-22T12:43:04.950Z,8.40
2018-06-22T12:45:33.595Z,16.50
2018-06-22T12:48:02.157Z,7.57
2018-06-22T12:50:30.732Z,21.00
2018-06-22T12:52:59.236Z,13.30
2018-06-22T12:55:27.762Z,13.63
2018-06-22T12:57:56.281Z,14.03
2018-06-22T13:00:24.814Z,18.83
2018-06-22T13:02:53.394Z,17.40
2018-06-22T13:05:21.977Z,8.77
2018-06-22T13:07:50.585Z,9.00
2018-06-22T13:10:19.104Z,12.17
2018-06-22T13:12:48.734Z,6.70
2018-06-22T13:15:17.304Z,11.07
2018-06-22T13:17:45.864Z,8.93
2018-06-22T13:20:15.044Z,11.03
2018-06-22T13:22:43.633Z,10.53
2018-06-22T13:25:16.026Z,7.93
2018-06-22T13:27:47.034Z,15.10
2018-06-22T13:30:15.539Z,21.40
2018-06-22T13:32:47.455Z,8.33
2018-06-22T13:35:15.945Z,8.13
2018-06-22T13:37:44.475Z,7.37
2018-06-22T13:40:13.132Z,17.70
2018-06-22T13:42:41.625Z,14.67
2018-06-22T13:45:10.285Z,15.67
2018-06-22T13:47:40.569Z,20.80
2018-06-22T13:50:19.088Z,15.07
2018-06-22T13:52:47.766Z,21.33
2018-06-22T13:55:16.305Z,10.17
2018-06-22T13:57:44.886Z,9.50
2018-06-22T14:00:13.421Z,9.00
2018-06-22T14:02:41.927Z,14.07
2018-06-22T14:05:15.721Z,9.40
2018-06-22T14:07:43.993Z,13.63
2018-06-22T14:10:12.541Z,13.57
2018-06-22T14:12:41.145Z,11.30
2018-06-22T14:15:09.717Z,12.00
2018-06-22T14:17:38.225Z,10.03
2018-06-22T14:20:06.884Z,11.93
2018-06-22T14:22:35.319Z,10.23
2018-06-22T14:25:03.950Z,12.43
2018-06-22T14:27:32.456Z,11.77
2018-06-22T14:30:00.984Z,14.70
2018-06-22T14:32:29.534Z,9.67
2018-06-22T14:34:58.067Z,11.93
2018-06-22T14:37:26.605Z,11.50
2018-06-22T14:39:55.219Z,10.70
2018-06-22T14:42:23.717Z,8.90
2018-06-22T14:44:52.349Z,11.77
2018-06-22T14:47:20.850Z,7.70
2018-06-22T14:49:49.559Z,11.63
2018-06-22T14:52:17.721Z,5.20
2018-06-22T14:54:56.053Z,6.93
2018-06-22T14:57:29.793Z,7.50
2018-06-22T15:00:03.658Z,19.43
2018-06-22T15:02:37.372Z,9.83
2018-06-22T15:05:11.301Z,14.77
2018-06-22T15:07:45.019Z,14.67
2018-06-22T15:10:15.316Z,13.97
2018-06-22T15:12:43.887Z,10.20
2018-06-22T15:15:12.373Z,7.93
2018-06-22T15:17:46.323Z,5.80
2018-06-22T15:20:15.516Z,14.13
2018-06-22T15:22:44.355Z,5.37
2018-06-22T15:25:13.142Z,9.60
2018-06-22T15:27:41.826Z,10.23
2018-06-22T15:30:10.659Z,5.27
2018-06-22T15:32:39.211Z,9.50
2018-06-22T15:35:13.086Z,6.20
2018-06-22T15:37:46.842Z,9.43
2018-06-22T15:42:24.085Z,6.23
2018-06-22T15:44:57.983Z,10.70
2018-06-22T15:47:31.756Z,3.57
2018-06-22T15:50:05.636Z,4.50
2018-06-22T15:52:39.308Z,7.67
2018-06-22T15:55:14.858Z,5.90
2018-06-22T15:57:43.625Z,4.90
2018-06-22T16:00:13.094Z,8.50
2018-06-22T16:02:46.991Z,13.30
2018-06-22T16:05:15.514Z,5.90
2018-06-22T16:07:45.602Z,3.27
2018-06-22T16:10:14.166Z,6.17
2018-06-22T16:12:42.788Z,5.40
2018-06-22T16:15:18.851Z,4.83
2018-06-22T16:17:54.694Z,5.40
2018-06-22T16:20:28.442Z,7.80
2018-06-22T16:23:02.258Z,7.93
2018-06-22T16:25:36.806Z,6.50
2018-06-22T16:28:05.498Z,4.77
2018-06-22T16:30:34.080Z,4.90
2018-06-22T16:33:02.618Z,5.90
2018-06-22T16:35:31.124Z,10.20
2018-06-22T16:37:59.673Z,2.70
2018-06-22T16:40:28.281Z,6.60
2018-06-22T16:42:56.769Z,10.03
2018-06-22T16:45:25.457Z,12.40
2018-06-22T16:47:53.959Z,7.80
2018-06-22T16:50:22.481Z,6.97
2018-06-22T16:52:51.009Z,5.23
2018-06-22T16:55:20.265Z,7.00
2018-06-22T16:57:48.808Z,2.30
2018-06-22T17:00:17.404Z,5.90
2018-06-22T17:02:47.588Z,10.13
2018-06-22T17:05:16.144Z,7.60
2018-06-22T17:07:49.949Z,3.70
2018-06-22T17:10:23.729Z,5.30
2018-06-22T17:12:57.651Z,7.73
2018-06-22T17:15:31.355Z,14.07
2018-06-22T17:18:04.990Z,6.93
2018-06-22T17:20:33.572Z,7.93
2018-06-22T17:23:02.147Z,4.33
2018-06-22T17:25:30.712Z,6.33
2018-06-22T17:27:59.220Z,7.30
2018-06-22T17:30:27.774Z,11.73
2018-06-22T17:32:56.270Z,8.50
2018-06-22T17:35:24.811Z,14.97
2018-06-22T17:37:53.314Z,9.40
2018-06-22T17:40:22.042Z,10.47
2018-06-22T17:42:50.538Z,8.43
2018-06-22T17:45:19.138Z,3.73
2018-06-22T17:47:47.352Z,12.60
2018-06-22T17:50:21.446Z,6.40
2018-06-22T17:52:49.973Z,15.60
2018-06-22T17:55:18.592Z,6.37
2018-06-22T17:57:47.144Z,9.43
2018-06-22T18:00:20.990Z,4.00
2018-06-22T18:02:58.953Z,11.80
2018-06-22T18:05:32.841Z,8.90
2018-06-22T18:08:01.390Z,11.27
2018-06-22T18:10:35.257Z,7.00
2018-06-22T18:13:03.901Z,10.13
2018-06-22T18:15:34.215Z,8.03
2018-06-22T18:18:03.016Z,10.23
2018-06-22T18:20:32.206Z,7.33
2018-06-22T18:23:00.787Z,12.93
2018-06-22T18:25:29.381Z,10.00
2018-06-22T18:27:57.913Z,8.27
2018-06-22T18:30:26.491Z,10.87
2018-06-22T18:32:55.003Z,13.30
2018-06-22T18:35:23.634Z,8.80
2018-06-22T18:37:52.156Z,8.00
2018-06-22T18:40:20.841Z,14.17
2018-06-22T18:42:49.409Z,11.23
2018-06-22T18:45:18.129Z,10.57
2018-06-22T18:47:46.690Z,7.30
2018-06-22T18:50:15.175Z,6.70
2018-06-22T18:52:49.143Z,10.20
2018-06-22T18:55:22.950Z,14.70
2018-06-22T18:57:56.913Z,9.67
2018-06-22T19:00:30.692Z,7.40
2018-06-22T19:03:04.504Z,9.27
2018-06-22T19:05:33.080Z,15.83
2018-06-22T19:08:01.932Z,7.70
2018-06-22T19:10:30.098Z,3.03
2018-06-22T19:12:58.733Z,10.33
2018-06-22T19:15:33.774Z,9.73
2018-06-22T19:18:02.500Z,15.50
2018-06-22T19:20:31.052Z,13.27
2018-06-22T19:23:01.690Z,10.33
2018-06-22T19:25:30.309Z,8.93
2018-06-22T19:27:58.485Z,8.33
2018-06-22T19:30:27.110Z,7.70
2018-06-22T19:32:55.749Z,4.30
2018-06-22T19:35:24.297Z,10.03
2018-06-22T19:37:52.889Z,9.53
2018-06-22T19:40:21.405Z,9.10
2018-06-22T19:42:49.913Z,9.90
2018-06-22T19:45:23.761Z,8.43
2018-06-22T19:47:57.445Z,5.53
2018-06-22T19:50:31.295Z,12.40
2018-06-22T19:53:05.232Z,6.50
2018-06-22T19:55:33.805Z,11.40
2018-06-22T19:58:02.342Z,13.40
2018-06-22T20:00:30.867Z,11.53
2018-06-22T20:02:59.361Z,15.37
2018-06-22T20:05:28.721Z,9.90
2018-06-22T20:07:57.225Z,15.40
2018-06-22T20:10:25.789Z,5.87
2018-06-22T20:12:54.337Z,10.83
2018-06-22T20:15:24.631Z,7.87
2018-06-22T20:17:54.503Z,8.57
2018-06-22T20:20:23.121Z,10.27
2018-06-22T20:22:51.954Z,14.23
2018-06-22T20:25:26.727Z,10.73
2018-06-22T20:27:55.297Z,9.77
2018-06-22T20:30:24.267Z,14.60
2018-06-22T20:32:52.761Z,9.77
2018-06-22T20:35:26.726Z,22.30
2018-06-22T20:38:57.808Z,13.13
2018-06-22T20:41:31.675Z,11.37
2018-06-22T20:46:10.356Z,12.67
2018-06-22T20:48:44.186Z,11.50
2018-06-22T20:51:12.786Z,8.13
2018-06-22T20:53:41.269Z,13.10
2018-06-22T20:56:09.820Z,14.83
2018-06-22T20:58:38.301Z,10.93
2018-06-22T21:01:06.869Z,12.43
2018-06-22T21:03:35.416Z,22.57
2018-06-22T21:06:04.016Z,16.90
2018-06-22T21:08:32.497Z,18.40
2018-06-22T21:11:01.050Z,19.20
2018-06-22T21:13:29.576Z,19.17
2018-06-22T21:15:58.181Z,13.07
2018-06-22T21:18:26.793Z,16.80
2018-06-22T21:21:00.570Z,23.50
2018-06-22T21:23:29.126Z,24.20
2018-06-22T21:25:58.372Z,15.00
2018-06-22T21:28:32.148Z,17.10
2018-06-22T21:31:05.961Z,21.70
2018-06-22T21:33:39.646Z,18.47
2018-06-22T21:36:13.663Z,32.50
2018-06-22T21:38:47.626Z,18.07
2018-06-22T21:41:16.822Z,10.10
2018-06-22T21:43:45.339Z,21.17
2018-06-22T21:46:13.877Z,22.53
2018-06-22T21:48:43.508Z,16.47
2018-06-22T21:51:12.017Z,24.10
2018-06-22T21:53:40.729Z,23.07
2018-06-22T21:56:09.252Z,27.60
2018-06-22T21:58:37.798Z,23.00
2018-06-22T22:01:07.766Z,29.80
2018-06-22T22:03:36.398Z,30.80
2018-06-22T22:06:05.386Z,20.60
2018-06-22T22:08:33.950Z,26.33
2018-06-22T22:11:07.859Z,28.30
2018-06-22T22:13:36.989Z,23.17
2018-06-22T22:16:06.207Z,20.53
2018-06-22T22:18:34.850Z,20.37
2018-06-22T22:21:03.364Z,20.43
2018-06-22T22:23:31.961Z,24.40
2018-06-22T22:26:00.539Z,23.87
2018-06-22T22:28:29.151Z,26.73
2018-06-22T22:30:57.662Z,23.87
2018-06-22T22:33:26.192Z,28.73
2018-06-22T22:35:54.726Z,30.03
2018-06-22T22:38:23.982Z,25.30
2018-06-22T22:40:52.543Z,21.07
2018-06-22T22:43:21.151Z,25.10
2018-06-22T22:45:49.689Z,27.97
2018-06-22T22:48:18.263Z,23.50
2018-06-22T22:50:46.448Z,28.30
2018-06-22T22:53:14.969Z,22.93
2018-06-22T22:55:43.504Z,33.03
2018-06-22T22:58:12.006Z,24.83
2018-06-22T23:00:40.522Z,18.53
2018-06-22T23:03:09.065Z,30.03
2018-06-22T23:05:37.601Z,36.67
2018-06-22T23:08:06.109Z,18.13
2018-06-22T23:10:34.649Z,22.83
2018-06-22T23:13:03.191Z,21.30
2018-06-22T23:15:31.766Z,23.93
2018-06-22T23:18:00.276Z,28.50
2018-06-22T23:20:28.966Z,16.17
2018-06-22T23:23:08.809Z,25.03
2018-06-22T23:25:37.327Z,31.20
2018-06-22T23:28:05.861Z,28.23
2018-06-22T23:30:34.531Z,33.13
2018-06-22T23:33:03.041Z,32.93
2018-06-22T23:35:31.529Z,26.73
2018-06-22T23:38:00.036Z,43.40
2018-06-22T23:40:28.589Z,22.77
2018-06-22T23:42:57.166Z,25.77
2018-06-22T23:45:25.727Z,33.20
2018-06-22T23:47:54.285Z,31.50
2018-06-22T23:50:22.793Z,23.80
2018-06-22T23:52:51.341Z,28.20
2018-06-22T23:55:19.810Z,30.60
2018-06-22T23:57:48.347Z,26.93
